Time;durP1;ratioP1;P1;durP2;ratioP2;P2;SDS_P1;SDS_P2;PMS_P1;PMS_P2;Temp;Humidity;BMP_temperature;BMP_pressure;BME280_temperature;BME280_humidity;BME280_pressure;Samples;Min_cycle;Max_cycle;Signal;HPM_P1;HPM_P2
2023/08/08 06:02:58;;;;;;;18.27;6.55;;;;;;;;;;4866204;29;20557;-86
2023/08/08 06:05:24;;;;;;;13.73;6.13;;;;;;;;;;4871386;29;20049;-86
2023/08/08 06:07:50;;;;;;;10.13;6.28;;;;;;;;;;4869755;29;20046;-87
2023/08/08 06:10:15;;;;;;;12.63;5.82;;;;;;;;;;4858819;29;20128;-85
2023/08/08 06:12:40;;;;;;;11.88;5.90;;;;;;;;;;4878463;29;20052;-85
2023/08/08 06:15:06;;;;;;;11.27;5.75;;;;;;;;;;4877704;29;20123;-85
2023/08/08 06:17:32;;;;;;;10.55;5.47;;;;;;;;;;4876709;29;20133;-85
2023/08/08 06:19:57;;;;;;;12.48;5.95;;;;;;;;;;4878210;29;20611;-86
2023/08/08 06:22:23;;;;;;;11.68;5.65;;;;;;;;;;4877628;29;20096;-86
2023/08/08 06:24:49;;;;;;;11.32;5.65;;;;;;;;;;4876801;29;20064;-85
2023/08/08 06:27:14;;;;;;;13.63;6.22;;;;;;;;;;4877623;29;20578;-85
2023/08/08 06:29:40;;;;;;;12.93;5.57;;;;;;;;;;4878409;29;20041;-85
2023/08/08 06:32:05;;;;;;;15.35;6.10;;;;;;;;;;4876775;29;20057;-84
2023/08/08 06:34:31;;;;;;;14.60;6.20;;;;;;;;;;4877993;29;20051;-86
2023/08/08 06:36:56;;;;;;;11.90;6.00;;;;;;;;;;4859909;29;20053;-86
2023/08/08 06:39:22;;;;;;;13.35;5.95;;;;;;;;;;4858760;29;20173;-86
2023/08/08 06:41:47;;;;;;;11.13;5.35;;;;;;;;;;4859276;29;20041;-86
2023/08/08 06:44:13;;;;;;;11.48;5.63;;;;;;;;;;4868962;29;20398;-86
2023/08/08 06:46:38;;;;;;;15.88;6.85;;;;;;;;;;4859949;29;20044;-87
2023/08/08 06:49:04;;;;;;;12.73;5.72;;;;;;;;;;4857966;29;20042;-85
2023/08/08 06:51:29;;;;;;;18.85;6.03;;;;;;;;;;4862430;29;20052;-85
2023/08/08 06:53:55;;;;;;;12.23;6.35;;;;;;;;;;4891047;29;20049;-85
2023/08/08 06:56:20;;;;;;;13.80;6.30;;;;;;;;;;4876847;29;20094;-85
2023/08/08 06:58:46;;;;;;;14.95;6.28;;;;;;;;;;4877498;29;20049;-86
2023/08/08 07:01:11;;;;;;;11.07;5.78;;;;;;;;;;4880027;29;20080;-87
2023/08/08 07:03:36;;;;;;;10.88;5.30;;;;;;;;;;4886076;29;20498;-86
2023/08/08 07:06:05;;;;;;;14.50;6.45;;;;;;;;;;4877908;29;20045;-87
2023/08/08 07:08:32;;;;;;;12.77;6.40;;;;;;;;;;4881324;29;20055;-85
2023/08/08 07:10:59;;;;;;;12.18;5.88;;;;;;;;;;4885903;29;20045;-87
2023/08/08 07:13:24;;;;;;;12.75;5.72;;;;;;;;;;4894239;29;20063;-85
2023/08/08 07:15:50;;;;;;;12.32;6.43;;;;;;;;;;4879234;29;20067;-85
2023/08/08 07:18:15;;;;;;;15.50;5.57;;;;;;;;;;4878599;29;20048;-86
2023/08/08 07:20:40;;;;;;;10.07;5.72;;;;;;;;;;4895309;29;20052;-86
2023/08/08 07:23:06;;;;;;;10.80;5.43;;;;;;;;;;4895359;29;20486;-85
2023/08/08 07:25:31;;;;;;;13.07;5.68;;;;;;;;;;4896313;29;20052;-86
2023/08/08 07:27:57;;;;;;;13.52;5.32;;;;;;;;;;4895886;29;20127;-85
2023/08/08 07:30:22;;;;;;;14.30;5.47;;;;;;;;;;4894849;29;20044;-86
2023/08/08 07:32:48;;;;;;;17.05;5.80;;;;;;;;;;4894730;29;20089;-85
2023/08/08 07:35:15;;;;;;;12.52;5.07;;;;;;;;;;4891299;29;20067;-86
2023/08/08 07:37:41;;;;;;;10.48;4.97;;;;;;;;;;4885612;29;20037;-87
2023/08/08 07:40:20;;;;;;;13.00;5.00;;;;;;;;;;4887498;29;20040;-86
2023/08/08 07:42:47;;;;;;;11.63;4.95;;;;;;;;;;4888206;29;20048;-86
2023/08/08 07:45:12;;;;;;;14.30;4.70;;;;;;;;;;4888005;29;20067;-85
2023/08/08 07:47:38;;;;;;;9.25;4.15;;;;;;;;;;4885796;29;20056;-85
2023/08/08 07:50:04;;;;;;;10.13;4.13;;;;;;;;;;4867892;29;20144;-84
2023/08/08 07:52:29;;;;;;;11.10;4.15;;;;;;;;;;4887059;29;20076;-84
2023/08/08 07:54:55;;;;;;;7.13;3.42;;;;;;;;;;4888701;29;20128;-86
2023/08/08 07:57:20;;;;;;;8.82;4.22;;;;;;;;;;4871615;29;20041;-85
2023/08/08 07:59:46;;;;;;;11.50;3.58;;;;;;;;;;4892251;29;20056;-85
2023/08/08 08:02:11;;;;;;;7.47;3.55;;;;;;;;;;4891776;29;20188;-84
2023/08/08 08:04:36;;;;;;;11.80;3.60;;;;;;;;;;4892770;29;20119;-85
2023/08/08 08:07:02;;;;;;;9.13;2.90;;;;;;;;;;4890529;29;20143;-84
2023/08/08 08:09:28;;;;;;;10.45;2.60;;;;;;;;;;4892206;29;20044;-84
2023/08/08 08:11:53;;;;;;;9.73;2.67;;;;;;;;;;4871751;29;20120;-84
2023/08/08 08:14:20;;;;;;;12.68;2.50;;;;;;;;;;4886457;29;20048;-83
2023/08/08 08:16:46;;;;;;;9.82;2.88;;;;;;;;;;4892107;29;20048;-84
2023/08/08 08:19:11;;;;;;;7.28;3.00;;;;;;;;;;4885895;29;20059;-84
2023/08/08 08:21:37;;;;;;;7.15;2.80;;;;;;;;;;4891904;29;20049;-83
2023/08/08 08:24:02;;;;;;;9.73;2.60;;;;;;;;;;4891699;29;20393;-83
2023/08/08 08:26:28;;;;;;;9.38;2.55;;;;;;;;;;4891451;29;20407;-84
2023/08/08 08:28:53;;;;;;;9.60;2.42;;;;;;;;;;4891510;29;20063;-83
2023/08/08 08:31:19;;;;;;;10.82;2.40;;;;;;;;;;4891176;29;20171;-86
2023/08/08 08:33:44;;;;;;;10.65;2.47;;;;;;;;;;4891751;29;20049;-84
2023/08/08 08:36:09;;;;;;;7.80;2.47;;;;;;;;;;4891482;29;20077;-83
2023/08/08 08:38:35;;;;;;;8.07;2.13;;;;;;;;;;4872469;29;20101;-85
2023/08/08 08:41:02;;;;;;;9.48;2.20;;;;;;;;;;4890826;29;20053;-87
2023/08/08 08:43:27;;;;;;;5.93;2.15;;;;;;;;;;4887080;29;20119;-87
2023/08/08 08:45:54;;;;;;;7.95;2.00;;;;;;;;;;4880015;29;20574;-84
2023/08/08 08:48:21;;;;;;;8.65;2.03;;;;;;;;;;4879484;29;20068;-85
2023/08/08 08:50:49;;;;;;;3.45;1.45;;;;;;;;;;4894906;29;20509;-88
2023/08/08 08:53:17;;;;;;;3.53;1.23;;;;;;;;;;4911233;29;20123;-88
2023/08/08 08:55:43;;;;;;;5.95;1.75;;;;;;;;;;4914836;29;20664;-87
2023/08/08 08:58:09;;;;;;;6.50;1.42;;;;;;;;;;4909789;29;20140;-90
2023/08/08 09:00:35;;;;;;;7.55;1.70;;;;;;;;;;4896049;29;20068;-89
2023/08/08 09:03:00;;;;;;;9.85;1.83;;;;;;;;;;4897216;29;20244;-89
2023/08/08 09:05:26;;;;;;;6.30;1.88;;;;;;;;;;4898137;29;20044;-89
2023/08/08 09:07:52;;;;;;;8.02;2.15;;;;;;;;;;4898202;29;20119;-85
2023/08/08 09:10:18;;;;;;;5.18;1.98;;;;;;;;;;4895769;29;20093;-85
2023/08/08 09:12:47;;;;;;;10.00;2.20;;;;;;;;;;4897453;29;20118;-84
2023/08/08 09:15:12;;;;;;;6.57;1.90;;;;;;;;;;4897255;29;20036;-86
2023/08/08 09:17:43;;;;;;;7.53;1.60;;;;;;;;;;4880755;29;20047;-87
2023/08/08 09:20:10;;;;;;;5.93;1.90;;;;;;;;;;4879973;29;20041;-87
2023/08/08 09:22:37;;;;;;;5.78;2.03;;;;;;;;;;4897067;29;20051;-87
2023/08/08 09:25:03;;;;;;;10.63;2.13;;;;;;;;;;4897155;29;20044;-89
2023/08/08 09:27:29;;;;;;;8.23;2.30;;;;;;;;;;4878651;29;20050;-87
2023/08/08 09:29:54;;;;;;;6.38;2.00;;;;;;;;;;4897606;29;20528;-88
2023/08/08 09:32:20;;;;;;;9.02;1.70;;;;;;;;;;4896936;29;20192;-89
2023/08/08 09:34:45;;;;;;;10.23;2.70;;;;;;;;;;4896843;29;20055;-88
2023/08/08 09:37:11;;;;;;;7.35;2.13;;;;;;;;;;4897370;29;20053;-88
2023/08/08 09:39:37;;;;;;;6.30;2.05;;;;;;;;;;4897300;29;20076;-87
2023/08/08 09:42:04;;;;;;;5.47;2.13;;;;;;;;;;4896651;29;20064;-89
2023/08/08 09:44:31;;;;;;;7.28;1.80;;;;;;;;;;4896574;29;20104;-88
2023/08/08 09:46:57;;;;;;;7.50;2.00;;;;;;;;;;4895013;29;20131;-88
2023/08/08 09:49:23;;;;;;;5.90;1.70;;;;;;;;;;4879888;29;20194;-88
2023/08/08 09:51:52;;;;;;;7.43;1.92;;;;;;;;;;4896726;29;20045;-86
2023/08/08 09:54:17;;;;;;;5.53;2.00;;;;;;;;;;4893815;29;20048;-86
2023/08/08 09:56:43;;;;;;;8.30;1.92;;;;;;;;;;4896764;29;20127;-86
2023/08/08 09:59:09;;;;;;;6.75;1.83;;;;;;;;;;4879407;29;20048;-87
2023/08/08 10:01:35;;;;;;;8.82;1.90;;;;;;;;;;4897403;29;20044;-87
2023/08/08 10:04:02;;;;;;;7.97;1.80;;;;;;;;;;4897097;29;20056;-88
2023/08/08 10:06:28;;;;;;;6.93;1.42;;;;;;;;;;4896473;29;20064;-88
2023/08/08 10:08:54;;;;;;;6.47;1.50;;;;;;;;;;4896878;29;20071;-89
2023/08/08 10:11:22;;;;;;;7.38;1.67;;;;;;;;;;4878805;29;20056;-85
2023/08/08 10:13:49;;;;;;;6.63;1.55;;;;;;;;;;4896194;29;20461;-85
2023/08/08 10:16:18;;;;;;;7.85;2.40;;;;;;;;;;4895618;29;20060;-85
2023/08/08 10:18:44;;;;;;;;;;;;;;;;;;4896560;29;20100;-85
2023/08/08 10:21:12;;;;;;;5.22;2.00;;;;;;;;;;4895214;29;20034;-85
2023/08/08 10:23:39;;;;;;;12.40;2.33;;;;;;;;;;4893405;29;20080;-85
2023/08/08 10:26:05;;;;;;;9.68;2.17;;;;;;;;;;4895661;29;20040;-84
2023/08/08 10:28:32;;;;;;;5.13;1.60;;;;;;;;;;4896020;29;20049;-85
2023/08/08 10:31:02;;;;;;;7.03;2.28;;;;;;;;;;4893584;29;20045;-84
2023/08/08 10:33:41;;;;;;;9.75;2.05;;;;;;;;;;4895240;29;20470;-85
2023/08/08 10:36:07;;;;;;;8.02;1.73;;;;;;;;;;4894529;29;20127;-85
2023/08/08 10:38:46;;;;;;;7.97;2.47;;;;;;;;;;4895682;29;20054;-83
2023/08/08 10:41:13;;;;;;;9.68;1.90;;;;;;;;;;4878674;29;20049;-86
2023/08/08 10:43:40;;;;;;;9.15;2.20;;;;;;;;;;4895745;29;20063;-86
2023/08/08 10:46:06;;;;;;;6.90;1.90;;;;;;;;;;4895393;29;20138;-85
2023/08/08 10:48:32;;;;;;;4.88;1.50;;;;;;;;;;4896107;29;20043;-86
2023/08/08 10:50:59;;;;;;;4.78;1.45;;;;;;;;;;4879796;29;20041;-85
2023/08/08 10:53:28;;;;;;;5.70;1.80;;;;;;;;;;4878312;29;20390;-86
2023/08/08 10:56:01;;;;;;;11.00;1.95;;;;;;;;;;4896215;29;20422;-84
2023/08/08 10:58:37;;;;;;;6.68;1.73;;;;;;;;;;4895511;29;20476;-84
2023/08/08 11:01:07;;;;;;;6.65;1.90;;;;;;;;;;4895742;29;20059;-83
2023/08/08 11:03:34;;;;;;;8.38;1.98;;;;;;;;;;4895400;29;20048;-87
2023/08/08 11:06:01;;;;;;;6.25;1.63;;;;;;;;;;4895804;29;20127;-86
2023/08/08 11:08:27;;;;;;;9.55;1.85;;;;;;;;;;4894511;29;20041;-86
2023/08/08 11:10:53;;;;;;;7.03;1.73;;;;;;;;;;4878860;29;20203;-88
2023/08/08 11:13:18;;;;;;;5.97;1.67;;;;;;;;;;4895443;29;20044;-82
2023/08/08 11:15:44;;;;;;;7.53;1.80;;;;;;;;;;4879274;29;20557;-84
2023/08/08 11:18:09;;;;;;;4.65;1.40;;;;;;;;;;4895491;29;20173;-84
2023/08/08 11:20:36;;;;;;;7.70;1.73;;;;;;;;;;4895717;29;20394;-85
2023/08/08 11:23:04;;;;;;;4.43;1.30;;;;;;;;;;4878876;29;20123;-83
2023/08/08 11:25:30;;;;;;;5.97;1.63;;;;;;;;;;4895303;29;20190;-84
2023/08/08 11:27:57;;;;;;;7.82;1.95;;;;;;;;;;4895846;29;20132;-87
2023/08/08 11:30:24;;;;;;;5.25;1.40;;;;;;;;;;4876266;29;20053;-86
2023/08/08 11:32:50;;;;;;;7.93;1.55;;;;;;;;;;4888873;29;20107;-88
2023/08/08 11:35:18;;;;;;;7.03;1.92;;;;;;;;;;4892778;29;20061;-87
2023/08/08 11:37:48;;;;;;;7.75;1.85;;;;;;;;;;4887887;29;20402;-87
2023/08/08 11:40:15;;;;;;;5.90;1.88;;;;;;;;;;4892279;29;20041;-86
2023/08/08 11:42:41;;;;;;;5.90;1.73;;;;;;;;;;4887548;29;20536;-85
2023/08/08 11:45:10;;;;;;;8.50;1.80;;;;;;;;;;4889875;29;20127;-85
2023/08/08 11:47:37;;;;;;;6.50;1.40;;;;;;;;;;4890013;29;20096;-85
2023/08/08 11:50:04;;;;;;;4.75;1.80;;;;;;;;;;4895876;29;20051;-83
2023/08/08 11:52:30;;;;;;;6.72;1.60;;;;;;;;;;4883915;29;20062;-85
2023/08/08 11:54:55;;;;;;;5.53;1.80;;;;;;;;;;4893802;29;20433;-86
2023/08/08 11:57:21;;;;;;;5.55;1.52;;;;;;;;;;4893513;29;20044;-85
2023/08/08 11:59:50;;;;;;;4.72;1.67;;;;;;;;;;4891515;29;20053;-86
2023/08/08 12:02:16;;;;;;;;;;;;;;;;;;4895573;29;20044;-86
2023/08/08 12:04:45;;;;;;;9.02;1.98;;;;;;;;;;4889609;29;19923;-85
2023/08/08 12:07:11;;;;;;;6.35;1.70;;;;;;;;;;4889790;29;20060;-85
2023/08/08 12:09:37;;;;;;;6.22;2.10;;;;;;;;;;4888791;29;20079;-86
2023/08/08 12:12:04;;;;;;;5.45;1.63;;;;;;;;;;4894255;29;20074;-86
2023/08/08 12:14:30;;;;;;;8.02;1.88;;;;;;;;;;4888721;29;20068;-85
2023/08/08 12:16:55;;;;;;;7.00;1.83;;;;;;;;;;4875478;29;20075;-86
2023/08/08 12:19:25;;;;;;;5.43;1.50;;;;;;;;;;4893473;29;20056;-86
2023/08/08 12:21:51;;;;;;;5.43;1.80;;;;;;;;;;4884698;29;20048;-85
2023/08/08 12:24:18;;;;;;;6.38;1.90;;;;;;;;;;4896914;29;20525;-85
2023/08/08 12:26:44;;;;;;;5.60;1.50;;;;;;;;;;4890678;29;20153;-86
2023/08/08 12:29:09;;;;;;;4.25;1.60;;;;;;;;;;4894426;29;20513;-86
2023/08/08 12:31:34;;;;;;;5.13;1.77;;;;;;;;;;4891108;29;20048;-86
2023/08/08 12:34:01;;;;;;;6.25;1.65;;;;;;;;;;4887494;29;20418;-84
2023/08/08 12:39:38;;;;;;;6.78;1.88;;;;;;;;;;4881397;29;20489;-86
2023/08/08 12:42:03;;;;;;;4.95;1.52;;;;;;;;;;4889524;29;20068;-86
2023/08/08 12:44:29;;;;;;;9.80;1.92;;;;;;;;;;4872032;29;20052;-85
2023/08/08 12:46:54;;;;;;;6.70;1.80;;;;;;;;;;4890125;29;20058;-86
2023/08/08 12:49:19;;;;;;;5.90;1.58;;;;;;;;;;4890331;29;20045;-86
2023/08/08 12:51:45;;;;;;;5.53;1.55;;;;;;;;;;4886515;29;20057;-86
2023/08/08 12:54:10;;;;;;;6.60;1.98;;;;;;;;;;4889818;29;20053;-86
2023/08/08 12:56:36;;;;;;;9.32;1.70;;;;;;;;;;4888217;29;20073;-86
2023/08/08 12:59:02;;;;;;;7.13;1.52;;;;;;;;;;4893888;29;20172;-85
2023/08/08 13:01:28;;;;;;;7.53;1.50;;;;;;;;;;4885719;29;20060;-86
2023/08/08 13:03:53;;;;;;;8.40;1.70;;;;;;;;;;4886464;29;20103;-84
2023/08/08 13:06:19;;;;;;;5.00;1.63;;;;;;;;;;4875547;29;20533;-85
2023/08/08 13:09:40;;;;;;;7.40;1.83;;;;;;;;;;4889099;29;20045;-85
2023/08/08 13:12:06;;;;;;;7.95;2.03;;;;;;;;;;4875766;29;20052;-85
2023/08/08 13:14:32;;;;;;;5.93;1.33;;;;;;;;;;4888261;29;20039;-85
2023/08/08 13:16:58;;;;;;;9.32;1.90;;;;;;;;;;4890902;29;20056;-86
2023/08/08 13:19:25;;;;;;;6.60;1.80;;;;;;;;;;4888848;29;20048;-85
2023/08/08 13:21:51;;;;;;;6.30;1.85;;;;;;;;;;4887441;29;20132;-85
2023/08/08 13:24:17;;;;;;;6.78;1.73;;;;;;;;;;4893212;29;20051;-84
2023/08/08 13:26:42;;;;;;;6.55;1.58;;;;;;;;;;4888130;29;20037;-85
2023/08/08 13:29:08;;;;;;;6.22;1.92;;;;;;;;;;4885282;29;20044;-87
2023/08/08 13:31:34;;;;;;;6.75;1.67;;;;;;;;;;4888145;29;20056;-85
2023/08/08 13:33:59;;;;;;;7.95;1.80;;;;;;;;;;4878844;29;20513;-86
2023/08/08 13:36:24;;;;;;;7.07;1.65;;;;;;;;;;4895721;29;20127;-84
2023/08/08 13:38:50;;;;;;;9.25;1.98;;;;;;;;;;4890250;29;20048;-85
2023/08/08 13:41:15;;;;;;;5.50;2.03;;;;;;;;;;4886743;29;20441;-84
2023/08/08 13:43:40;;;;;;;6.47;1.73;;;;;;;;;;4887743;29;20048;-86
2023/08/08 13:46:09;;;;;;;5.05;1.80;;;;;;;;;;4889158;29;20040;-86
2023/08/08 13:48:35;;;;;;;10.20;1.83;;;;;;;;;;4871983;29;20391;-86
2023/08/08 13:51:00;;;;;;;8.43;1.75;;;;;;;;;;4891269;29;20096;-85
2023/08/08 13:53:26;;;;;;;6.18;1.65;;;;;;;;;;4890643;29;20071;-85
2023/08/08 13:55:51;;;;;;;6.05;1.95;;;;;;;;;;4889814;29;20052;-85
2023/08/08 13:58:17;;;;;;;8.00;1.75;;;;;;;;;;4891338;29;20116;-84
2023/08/08 14:00:42;;;;;;;7.40;1.52;;;;;;;;;;4885632;29;20063;-83
2023/08/08 14:03:08;;;;;;;10.45;1.90;;;;;;;;;;4888376;29;20045;-86
2023/08/08 14:05:34;;;;;;;4.95;1.60;;;;;;;;;;4873571;29;20044;-85
2023/08/08 14:07:59;;;;;;;6.45;1.88;;;;;;;;;;4888998;29;20487;-84
2023/08/08 14:10:24;;;;;;;7.55;2.22;;;;;;;;;;4887812;29;20139;-84
2023/08/08 14:12:50;;;;;;;6.05;2.05;;;;;;;;;;4887353;29;20414;-85
2023/08/08 14:15:15;;;;;;;11.52;1.73;;;;;;;;;;4886624;29;20048;-85
2023/08/08 14:17:41;;;;;;;5.63;1.55;;;;;;;;;;4876870;29;20104;-85
2023/08/08 14:20:07;;;;;;;8.70;1.70;;;;;;;;;;4883577;29;20051;-85
2023/08/08 14:22:34;;;;;;;7.78;1.67;;;;;;;;;;4884028;29;20075;-85
2023/08/08 14:25:15;;;;;;;5.78;1.40;;;;;;;;;;4882693;29;20418;-83
2023/08/08 14:27:40;;;;;;;6.50;1.45;;;;;;;;;;4876191;29;20060;-85
2023/08/08 14:30:16;;;;;;;7.03;1.77;;;;;;;;;;4881618;29;20044;-84
2023/08/08 14:32:41;;;;;;;5.38;1.67;;;;;;;;;;4873116;29;20517;-84
2023/08/08 14:35:08;;;;;;;7.15;2.03;;;;;;;;;;4888947;29;20032;-85
2023/08/08 14:37:34;;;;;;;8.57;1.80;;;;;;;;;;4891291;29;20126;-84
2023/08/08 14:40:02;;;;;;;6.47;1.67;;;;;;;;;;4893540;29;20056;-83
2023/08/08 14:42:28;;;;;;;5.45;2.08;;;;;;;;;;4893297;29;20064;-85
2023/08/08 14:44:53;;;;;;;5.97;2.30;;;;;;;;;;4893918;29;20549;-85
2023/08/08 14:47:18;;;;;;;8.02;2.00;;;;;;;;;;4894761;29;20454;-86
2023/08/08 14:49:44;;;;;;;8.70;2.05;;;;;;;;;;4893605;29;20091;-86
2023/08/08 14:52:09;;;;;;;8.43;1.70;;;;;;;;;;4884963;29;20048;-83
2023/08/08 14:54:35;;;;;;;6.88;1.98;;;;;;;;;;4893666;29;20041;-86
2023/08/08 14:57:01;;;;;;;9.82;2.30;;;;;;;;;;4891676;29;20040;-86
2023/08/08 14:59:27;;;;;;;6.63;2.10;;;;;;;;;;4890489;29;20362;-86
2023/08/08 15:01:53;;;;;;;10.45;2.47;;;;;;;;;;4891489;29;20110;-85
2023/08/08 15:04:18;;;;;;;10.70;2.00;;;;;;;;;;4884713;29;20057;-86
2023/08/08 15:06:44;;;;;;;8.02;2.28;;;;;;;;;;4866102;29;20052;-84
2023/08/08 15:09:09;;;;;;;8.50;2.55;;;;;;;;;;4870088;29;20056;-84
2023/08/08 15:11:34;;;;;;;11.90;2.70;;;;;;;;;;4878353;29;20181;-85
2023/08/08 15:14:00;;;;;;;7.95;2.53;;;;;;;;;;4880334;29;20053;-85
2023/08/08 15:16:25;;;;;;;8.63;2.60;;;;;;;;;;4884662;29;20049;-85
2023/08/08 15:18:51;;;;;;;9.32;2.50;;;;;;;;;;4883303;29;20049;-86
2023/08/08 15:21:20;;;;;;;10.10;2.65;;;;;;;;;;4877765;29;20053;-83
2023/08/08 15:23:45;;;;;;;;;;;;;;;;;;4889653;29;20416;-86
2023/08/08 15:26:11;;;;;;;9.18;2.30;;;;;;;;;;4886735;29;19928;-82
2023/08/08 15:28:37;;;;;;;8.07;2.60;;;;;;;;;;4887781;29;20055;-80
2023/08/08 15:31:03;;;;;;;10.57;2.28;;;;;;;;;;4885822;29;20044;-84
2023/08/08 15:33:29;;;;;;;9.43;2.05;;;;;;;;;;4879108;29;20049;-85
2023/08/08 15:35:54;;;;;;;5.28;1.80;;;;;;;;;;4880224;29;20100;-86
2023/08/08 15:38:20;;;;;;;11.57;2.83;;;;;;;;;;4873396;29;20408;-87
2023/08/08 15:40:46;;;;;;;9.68;2.80;;;;;;;;;;4878260;29;20044;-86
2023/08/08 15:43:11;;;;;;;8.88;2.88;;;;;;;;;;4875289;29;20076;-87
2023/08/08 15:45:37;;;;;;;12.32;3.03;;;;;;;;;;4866171;29;20518;-87
2023/08/08 15:48:03;;;;;;;14.02;3.60;;;;;;;;;;4885089;29;20048;-84
2023/08/08 15:50:28;;;;;;;9.32;2.90;;;;;;;;;;4882565;29;20104;-85
2023/08/08 15:52:56;;;;;;;14.50;3.00;;;;;;;;;;4882221;29;20573;-90
2023/08/08 15:55:22;;;;;;;11.95;2.60;;;;;;;;;;4863190;29;20059;-88
2023/08/08 15:57:47;;;;;;;13.88;3.15;;;;;;;;;;4883122;29;20147;-89
2023/08/08 16:00:15;;;;;;;13.05;2.95;;;;;;;;;;4883317;29;20529;-89
2023/08/08 16:02:40;;;;;;;10.27;3.00;;;;;;;;;;4879411;29;20056;-89
2023/08/08 16:05:06;;;;;;;10.70;2.97;;;;;;;;;;4877546;29;20140;-88
2023/08/08 16:07:31;;;;;;;15.63;3.15;;;;;;;;;;4884379;29;20057;-86
2023/08/08 16:09:57;;;;;;;12.30;2.95;;;;;;;;;;4887538;29;20068;-89
2023/08/08 16:12:22;;;;;;;12.50;3.03;;;;;;;;;;4884642;29;20059;-86
2023/08/08 16:14:48;;;;;;;11.98;3.08;;;;;;;;;;4883185;29;20132;-86
2023/08/08 16:17:14;;;;;;;13.20;3.70;;;;;;;;;;4877813;29;20044;-87
2023/08/08 16:19:39;;;;;;;13.15;3.42;;;;;;;;;;4881330;29;20185;-86
2023/08/08 16:22:05;;;;;;;11.40;3.05;;;;;;;;;;4880107;29;20131;-87
2023/08/08 16:24:31;;;;;;;12.82;3.25;;;;;;;;;;4888203;29;20053;-87
2023/08/08 16:26:56;;;;;;;18.73;3.70;;;;;;;;;;4886147;29;20047;-85
2023/08/08 16:29:22;;;;;;;15.63;4.25;;;;;;;;;;4881186;29;20060;-85
2023/08/08 16:31:47;;;;;;;11.32;4.05;;;;;;;;;;4884381;29;20056;-87
2023/08/08 16:34:12;;;;;;;15.50;4.30;;;;;;;;;;4883643;29;20422;-85
2023/08/08 16:36:39;;;;;;;12.10;3.60;;;;;;;;;;4881089;29;20188;-86
2023/08/08 16:39:04;;;;;;;11.80;3.95;;;;;;;;;;4883408;29;20123;-87
2023/08/08 16:41:31;;;;;;;11.45;4.25;;;;;;;;;;4882693;29;20205;-88
2023/08/08 16:44:04;;;;;;;12.32;4.32;;;;;;;;;;4874011;29;20056;-87
2023/08/08 16:46:30;;;;;;;16.55;4.32;;;;;;;;;;4880585;29;20415;-87
2023/08/08 16:48:56;;;;;;;12.13;5.25;;;;;;;;;;4880505;29;20056;-85
2023/08/08 16:51:21;;;;;;;16.42;4.85;;;;;;;;;;4888749;29;20061;-86
2023/08/08 16:53:47;;;;;;;16.38;4.85;;;;;;;;;;4869763;29;20395;-87
2023/08/08 16:56:13;;;;;;;15.63;5.18;;;;;;;;;;4875861;29;20045;-88
2023/08/08 16:58:39;;;;;;;19.45;4.47;;;;;;;;;;4884353;29;20119;-86
2023/08/08 17:01:05;;;;;;;11.27;4.18;;;;;;;;;;4882847;29;20540;-87
2023/08/08 17:03:32;;;;;;;19.17;5.10;;;;;;;;;;4877655;29;20071;-87
2023/08/08 17:05:57;;;;;;;22.75;4.85;;;;;;;;;;4882742;29;20048;-86
2023/08/08 17:08:23;;;;;;;18.20;5.47;;;;;;;;;;4879003;29;20051;-87
2023/08/08 17:10:48;;;;;;;16.83;4.78;;;;;;;;;;4884589;29;20057;-86
2023/08/08 17:13:14;;;;;;;16.85;5.32;;;;;;;;;;4883471;29;20045;-86
2023/08/08 17:15:39;;;;;;;14.13;5.00;;;;;;;;;;4885762;29;20049;-86
2023/08/08 17:18:05;;;;;;;16.02;5.65;;;;;;;;;;4882303;29;20134;-85
2023/08/08 17:20:30;;;;;;;13.75;4.88;;;;;;;;;;4885633;29;20822;-87
2023/08/08 17:22:56;;;;;;;18.92;6.00;;;;;;;;;;4883893;29;20063;-88
2023/08/08 17:25:21;;;;;;;18.02;6.45;;;;;;;;;;4870380;29;20044;-86
2023/08/08 17:27:47;;;;;;;13.38;4.90;;;;;;;;;;4876098;29;20041;-87
2023/08/08 17:30:13;;;;;;;15.63;5.63;;;;;;;;;;4867618;29;20048;-87
2023/08/08 17:32:38;;;;;;;15.55;5.60;;;;;;;;;;4865310;29;20525;-86
2023/08/08 17:35:04;;;;;;;19.35;6.60;;;;;;;;;;4889300;29;20111;-87
2023/08/08 17:37:29;;;;;;;16.23;6.05;;;;;;;;;;4867917;29;20167;-85
2023/08/08 17:39:55;;;;;;;19.80;6.38;;;;;;;;;;4880396;29;20044;-87
2023/08/08 17:42:21;;;;;;;17.92;7.22;;;;;;;;;;4880547;29;20080;-87
2023/08/08 17:44:47;;;;;;;21.38;7.75;;;;;;;;;;4862872;29;20685;-85
2023/08/08 17:47:14;;;;;;;21.48;7.25;;;;;;;;;;4885930;29;20040;-87
2023/08/08 17:49:40;;;;;;;17.42;7.07;;;;;;;;;;4868824;29;20494;-87
2023/08/08 17:52:06;;;;;;;10.40;4.78;;;;;;;;;;4870930;29;20045;-87
2023/08/08 17:54:32;;;;;;;15.65;5.63;;;;;;;;;;4883911;29;20056;-88
2023/08/08 17:56:58;;;;;;;11.35;4.57;;;;;;;;;;4873436;29;20290;-88
2023/08/08 17:59:23;;;;;;;12.45;4.40;;;;;;;;;;4890558;29;20052;-88
2023/08/08 18:01:49;;;;;;;16.30;5.00;;;;;;;;;;4885138;29;20044;-87
2023/08/08 18:04:14;;;;;;;14.07;5.10;;;;;;;;;;4887783;29;20135;-87
2023/08/08 18:06:40;;;;;;;12.55;4.80;;;;;;;;;;4886041;29;20080;-87
2023/08/08 18:09:06;;;;;;;11.20;4.43;;;;;;;;;;4884252;29;20049;-87
2023/08/08 18:11:37;;;;;;;14.60;5.05;;;;;;;;;;4888510;29;20051;-88
2023/08/08 18:14:07;;;;;;;15.18;5.53;;;;;;;;;;4887790;29;20097;-87
2023/08/08 18:16:33;;;;;;;12.45;5.43;;;;;;;;;;4889091;29;20104;-87
2023/08/08 18:18:58;;;;;;;9.75;5.20;;;;;;;;;;4889631;29;20040;-86
2023/08/08 18:21:23;;;;;;;11.00;4.65;;;;;;;;;;4886037;29;20100;-84
2023/08/08 18:23:49;;;;;;;8.30;4.55;;;;;;;;;;4889106;29;20045;-86
2023/08/08 18:26:17;;;;;;;7.03;4.80;;;;;;;;;;4869469;29;20055;-85
2023/08/08 18:28:43;;;;;;;12.75;5.00;;;;;;;;;;4867995;29;20045;-86
2023/08/08 18:31:08;;;;;;;9.07;4.35;;;;;;;;;;4885284;29;20058;-87
2023/08/08 18:33:34;;;;;;;8.98;4.40;;;;;;;;;;4889504;29;20053;-86
2023/08/08 18:36:03;;;;;;;14.65;5.43;;;;;;;;;;4889246;29;20052;-86
2023/08/08 18:38:33;;;;;;;14.13;4.78;;;;;;;;;;4871534;29;20067;-85
2023/08/08 18:40:58;;;;;;;14.60;4.43;;;;;;;;;;4887626;29;20056;-86
2023/08/08 18:43:23;;;;;;;11.70;4.43;;;;;;;;;;4887950;29;20127;-86
2023/08/08 18:45:49;;;;;;;11.90;4.90;;;;;;;;;;4887226;29;20045;-87
2023/08/08 18:48:15;;;;;;;14.27;5.40;;;;;;;;;;4871093;29;20429;-86
2023/08/08 18:50:40;;;;;;;9.00;4.57;;;;;;;;;;4887527;29;20055;-87
2023/08/08 18:53:06;;;;;;;13.82;5.40;;;;;;;;;;4888475;29;20037;-86
2023/08/08 18:55:32;;;;;;;13.10;5.20;;;;;;;;;;4889068;29;20139;-86
2023/08/08 18:57:58;;;;;;;16.88;6.15;;;;;;;;;;4888229;29;20051;-87
2023/08/08 19:00:24;;;;;;;14.07;6.70;;;;;;;;;;4881847;29;20101;-86
2023/08/08 19:02:51;;;;;;;11.43;5.50;;;;;;;;;;4887363;29;20151;-87
2023/08/08 19:05:17;;;;;;;16.10;6.60;;;;;;;;;;4888071;29;20060;-87
2023/08/08 19:07:43;;;;;;;19.40;7.72;;;;;;;;;;4884858;29;20055;-86
2023/08/08 19:10:09;;;;;;;26.27;9.75;;;;;;;;;;4876245;29;20045;-87
2023/08/08 19:12:34;;;;;;;23.55;8.40;;;;;;;;;;4878382;29;20053;-87
2023/08/08 19:15:00;;;;;;;22.85;10.80;;;;;;;;;;4880018;29;20674;-85
2023/08/08 19:17:25;;;;;;;23.80;10.80;;;;;;;;;;4867629;29;20037;-87
2023/08/08 19:19:50;;;;;;;25.05;10.05;;;;;;;;;;4879536;29;20120;-86
2023/08/08 19:22:16;;;;;;;18.20;8.52;;;;;;;;;;4878135;29;20057;-88
2023/08/08 19:24:41;;;;;;;20.50;7.15;;;;;;;;;;4870487;29;20048;-85
2023/08/08 19:27:07;;;;;;;20.42;7.97;;;;;;;;;;4883501;29;20052;-85
2023/08/08 19:29:32;;;;;;;15.80;7.20;;;;;;;;;;4877813;29;20048;-86
2023/08/08 19:31:58;;;;;;;19.20;6.25;;;;;;;;;;4868006;29;20122;-87
2023/08/08 19:34:23;;;;;;;18.85;6.85;;;;;;;;;;4875077;29;20561;-87
2023/08/08 19:36:48;;;;;;;15.10;6.30;;;;;;;;;;4887120;29;20156;-88
2023/08/08 19:39:14;;;;;;;16.10;6.70;;;;;;;;;;4886422;29;20177;-87
2023/08/08 19:41:39;;;;;;;18.58;6.68;;;;;;;;;;4886750;29;20235;-87
2023/08/08 19:44:05;;;;;;;12.88;5.60;;;;;;;;;;4875747;29;20067;-87
2023/08/08 19:46:30;;;;;;;10.35;5.18;;;;;;;;;;4888846;29;20224;-87
2023/08/08 19:48:55;;;;;;;13.27;5.68;;;;;;;;;;4876551;29;20041;-87
2023/08/08 19:51:21;;;;;;;14.75;4.97;;;;;;;;;;4868066;29;20411;-89
2023/08/08 19:53:49;;;;;;;15.10;5.90;;;;;;;;;;4890533;29;20051;-89
2023/08/08 19:56:15;;;;;;;10.73;5.22;;;;;;;;;;4891814;29;20067;-87
2023/08/08 19:58:41;;;;;;;11.77;5.68;;;;;;;;;;4889223;29;20061;-88
2023/08/08 20:01:06;;;;;;;16.30;5.97;;;;;;;;;;4886743;29;20403;-87
2023/08/08 20:03:32;;;;;;;11.93;6.18;;;;;;;;;;4887408;29;20045;-86
2023/08/08 20:05:58;;;;;;;12.23;5.88;;;;;;;;;;4883587;29;20879;-87
2023/08/08 20:08:23;;;;;;;12.00;5.57;;;;;;;;;;4875751;29;20069;-87
2023/08/08 20:10:49;;;;;;;18.55;5.85;;;;;;;;;;4875017;29;20495;-87
2023/08/08 20:13:15;;;;;;;15.07;6.28;;;;;;;;;;4883910;29;20068;-86
2023/08/08 20:15:40;;;;;;;16.27;6.28;;;;;;;;;;4879988;29;20090;-87
2023/08/08 20:18:06;;;;;;;15.70;6.57;;;;;;;;;;4882130;29;20047;-89
2023/08/08 20:20:31;;;;;;;16.52;6.95;;;;;;;;;;4888044;29;20051;-86
2023/08/08 20:22:57;;;;;;;16.98;6.50;;;;;;;;;;4872747;29;20045;-88
2023/08/08 20:25:22;;;;;;;18.10;7.18;;;;;;;;;;4879020;29;20052;-87
2023/08/08 20:27:48;;;;;;;17.60;7.32;;;;;;;;;;4874867;29;20518;-88
2023/08/08 20:30:13;;;;;;;18.35;6.97;;;;;;;;;;4878127;29;20051;-87
2023/08/08 20:32:38;;;;;;;18.45;7.15;;;;;;;;;;4889263;29;20097;-86
2023/08/08 20:35:04;;;;;;;18.95;6.10;;;;;;;;;;4879196;29;20091;-86
2023/08/08 20:37:29;;;;;;;21.73;7.70;;;;;;;;;;4890320;29;20044;-87